createdAt,value
2018-08-31T00:00:15.265Z,14.07
2018-08-31T00:03:18.249Z,14.90
2018-08-31T00:06:29.992Z,15.70
2018-08-31T00:09:47.013Z,15.30
2018-08-31T00:13:07.892Z,14.67
2018-08-31T00:16:10.150Z,14.90
2018-08-31T00:19:15.753Z,15.90
2018-08-31T00:22:19.016Z,15.33
2018-08-31T00:26:33.336Z,15.57
2018-08-31T00:30:12.579Z,15.93
2018-08-31T00:33:42.455Z,15.87
2018-08-31T00:40:04.664Z,15.53
2018-08-31T00:43:24.716Z,15.37
2018-08-31T00:46:28.644Z,16.37
2018-08-31T00:49:31.331Z,16.13
2018-08-31T00:52:33.124Z,15.97
2018-08-31T00:55:35.263Z,15.33
2018-08-31T00:58:37.016Z,15.43
2018-08-31T01:01:42.283Z,15.07
2018-08-31T01:04:45.336Z,15.10
2018-08-31T01:07:47.876Z,13.93
2018-08-31T01:10:50.838Z,13.03
2018-08-31T01:13:54.977Z,12.77
2018-08-31T01:16:58.147Z,12.33
2018-08-31T01:20:00.238Z,11.77
2018-08-31T01:23:04.292Z,11.20
2018-08-31T01:26:06.038Z,11.40
2018-08-31T01:29:08.183Z,11.60
2018-08-31T01:32:11.899Z,11.73
2018-08-31T01:35:14.685Z,12.87
2018-08-31T01:38:16.895Z,11.57
2018-08-31T01:41:19.016Z,11.70
2018-08-31T01:44:21.282Z,11.47
2018-08-31T01:47:22.962Z,12.13
2018-08-31T01:50:25.235Z,11.77
2018-08-31T01:53:27.673Z,12.00
2018-08-31T01:56:29.538Z,12.60
2018-08-31T01:59:31.535Z,12.27
2018-08-31T02:02:34.629Z,12.73
2018-08-31T02:05:36.676Z,12.33
2018-08-31T02:08:40.364Z,13.30
2018-08-31T02:11:42.881Z,12.60
2018-08-31T02:14:45.185Z,13.07
2018-08-31T02:17:47.002Z,13.37
2018-08-31T02:20:48.825Z,12.93
2018-08-31T02:23:51.346Z,12.93
2018-08-31T02:26:53.301Z,12.90
2018-08-31T02:29:55.224Z,12.37
2018-08-31T02:32:57.056Z,13.40
2018-08-31T02:36:00.185Z,13.87
2018-08-31T02:39:03.365Z,12.90
2018-08-31T02:42:07.805Z,13.40
2018-08-31T02:45:09.803Z,14.10
2018-08-31T02:48:11.776Z,15.33
2018-08-31T02:51:14.384Z,14.67
2018-08-31T02:54:17.385Z,14.43
2018-08-31T02:57:19.953Z,14.97
2018-08-31T03:00:21.677Z,14.83
2018-08-31T03:03:24.017Z,14.97
2018-08-31T03:06:26.139Z,14.80
2018-08-31T03:09:27.870Z,14.37
2018-08-31T03:12:29.891Z,13.87
2018-08-31T03:15:31.912Z,14.50
2018-08-31T03:18:34.001Z,15.40
2018-08-31T03:21:36.146Z,14.60
2018-08-31T03:24:37.887Z,13.97
2018-08-31T03:27:39.647Z,15.07
2018-08-31T03:30:41.996Z,14.17
2018-08-31T03:33:44.027Z,13.60
2018-08-31T03:36:44.667Z,13.13
2018-08-31T03:39:47.144Z,12.80
2018-08-31T03:42:49.384Z,12.67
2018-08-31T03:45:51.914Z,12.57
2018-08-31T03:48:56.484Z,11.93
2018-08-31T03:51:59.976Z,11.60
2018-08-31T03:55:03.524Z,11.07
2018-08-31T03:58:01.957Z,11.00
2018-08-31T04:01:00.091Z,10.60
2018-08-31T04:03:58.152Z,10.20
2018-08-31T04:06:56.017Z,9.57
2018-08-31T04:09:54.088Z,10.13
2018-08-31T04:12:52.169Z,9.53
2018-08-31T04:15:50.310Z,10.13
2018-08-31T04:18:48.675Z,10.17
2018-08-31T04:21:46.931Z,9.90
2018-08-31T04:24:45.928Z,10.33
2018-08-31T04:27:43.960Z,10.23
2018-08-31T04:30:42.093Z,9.40
2018-08-31T04:33:40.440Z,10.30
2018-08-31T04:36:39.411Z,9.83
2018-08-31T04:39:37.452Z,10.17
2018-08-31T04:42:35.505Z,9.87
2018-08-31T04:45:33.465Z,9.80
2018-08-31T04:48:31.330Z,9.80
2018-08-31T04:51:29.272Z,10.13
2018-08-31T04:54:27.136Z,10.17
2018-08-31T04:57:24.996Z,10.17
2018-08-31T05:00:22.961Z,9.93
2018-08-31T05:03:20.955Z,9.43
2018-08-31T05:06:19.056Z,8.63
2018-08-31T05:09:19.373Z,8.60
2018-08-31T05:12:17.355Z,8.20
2018-08-31T05:15:15.372Z,7.33
2018-08-31T05:18:13.284Z,7.47
2018-08-31T05:21:11.519Z,7.57
2018-08-31T05:24:09.362Z,6.87
2018-08-31T05:27:07.429Z,6.83
2018-08-31T05:30:05.485Z,6.07
2018-08-31T05:33:03.442Z,5.77
2018-08-31T05:36:02.328Z,6.17
2018-08-31T05:39:00.337Z,5.37
2018-08-31T05:41:58.336Z,5.00
2018-08-31T05:44:56.425Z,5.40
2018-08-31T05:47:54.476Z,4.90
2018-08-31T05:50:52.435Z,4.87
2018-08-31T05:53:50.306Z,4.50
2018-08-31T05:56:49.155Z,4.77
2018-08-31T05:59:47.215Z,4.63
2018-08-31T06:02:45.284Z,3.93
2018-08-31T06:05:43.245Z,4.03
2018-08-31T06:08:41.410Z,3.93
2018-08-31T06:11:39.351Z,3.93
2018-08-31T06:14:37.137Z,4.20
2018-08-31T06:17:35.334Z,4.23
2018-08-31T06:20:33.538Z,4.00
2018-08-31T06:23:31.855Z,3.93
2018-08-31T06:26:30.798Z,4.07
2018-08-31T06:29:28.951Z,4.10
2018-08-31T06:32:26.819Z,3.90
2018-08-31T06:35:24.963Z,3.70
2018-08-31T06:38:23.025Z,3.90
2018-08-31T06:41:21.150Z,4.17
2018-08-31T06:44:19.356Z,3.87
2018-08-31T06:47:18.374Z,4.10
2018-08-31T06:50:17.224Z,3.83
2018-08-31T06:53:15.464Z,3.80
2018-08-31T06:56:13.648Z,4.10
2018-08-31T06:59:11.683Z,4.03
2018-08-31T07:02:09.563Z,3.77
2018-08-31T07:05:07.714Z,3.70
2018-08-31T07:08:05.908Z,4.37
2018-08-31T07:11:03.984Z,4.40
2018-08-31T07:14:01.980Z,3.97
2018-08-31T07:17:00.956Z,3.57
2018-08-31T07:19:59.116Z,3.80
2018-08-31T07:22:56.899Z,3.60
2018-08-31T07:25:54.849Z,4.40
2018-08-31T07:28:52.816Z,3.80
2018-08-31T07:31:51.000Z,3.80
2018-08-31T07:34:49.245Z,4.00
2018-08-31T07:37:47.332Z,3.90
2018-08-31T07:40:45.495Z,3.80
2018-08-31T07:43:45.092Z,4.20
2018-08-31T07:46:46.938Z,4.03
2018-08-31T07:49:48.787Z,3.77
2018-08-31T07:52:48.997Z,3.80
2018-08-31T07:55:49.936Z,4.10
2018-08-31T07:58:49.331Z,3.67
2018-08-31T08:01:49.531Z,3.80
2018-08-31T08:04:49.332Z,4.30
2018-08-31T08:07:49.653Z,3.77
2018-08-31T08:10:49.548Z,3.83
2018-08-31T08:13:50.781Z,4.03
2018-08-31T08:16:49.465Z,3.90
2018-08-31T08:19:47.524Z,3.70
2018-08-31T08:22:45.767Z,3.93
2018-08-31T08:25:44.960Z,4.33
2018-08-31T08:28:42.912Z,3.80
2018-08-31T08:31:41.035Z,4.03
2018-08-31T08:34:39.976Z,3.40
2018-08-31T08:37:38.019Z,4.30
2018-08-31T08:40:36.088Z,3.97
2018-08-31T08:43:34.442Z,3.63
2018-08-31T08:46:34.766Z,4.10
2018-08-31T08:49:35.372Z,3.90
2018-08-31T08:52:33.693Z,4.03
2018-08-31T08:55:31.751Z,3.50
2018-08-31T08:58:30.013Z,4.20
2018-08-31T09:01:28.165Z,3.83
2018-08-31T09:04:35.043Z,3.50
2018-08-31T09:07:33.112Z,3.50
2018-08-31T09:10:31.202Z,3.80
2018-08-31T09:13:29.239Z,3.80
2018-08-31T09:16:27.328Z,3.80
2018-08-31T09:19:25.588Z,3.93
2018-08-31T09:22:24.337Z,3.73
2018-08-31T09:25:22.581Z,3.80
2018-08-31T09:28:20.504Z,3.70
2018-08-31T09:31:21.650Z,3.67
2018-08-31T09:34:19.822Z,4.07
2018-08-31T09:37:18.719Z,3.93
2018-08-31T09:40:17.711Z,4.00
2018-08-31T09:43:17.730Z,3.80
2018-08-31T09:46:17.979Z,4.00
2018-08-31T09:49:19.203Z,3.87
2018-08-31T09:52:19.203Z,4.20
2018-08-31T09:55:18.131Z,3.80
2018-08-31T09:58:16.237Z,3.93
2018-08-31T10:01:21.426Z,3.60
2018-08-31T10:04:19.595Z,4.00
2018-08-31T10:07:17.859Z,4.10
2018-08-31T10:10:17.052Z,4.20
2018-08-31T10:13:15.048Z,4.40
2018-08-31T10:16:12.863Z,3.90
2018-08-31T10:19:11.136Z,4.53
2018-08-31T10:22:09.170Z,4.40
2018-08-31T10:25:07.136Z,4.00
2018-08-31T10:28:05.196Z,4.37
2018-08-31T10:31:03.159Z,4.53
2018-08-31T10:34:01.219Z,4.53
2018-08-31T10:36:59.189Z,4.50
2018-08-31T10:39:57.279Z,5.03
2018-08-31T10:42:55.570Z,4.47
2018-08-31T10:45:53.648Z,4.33
2018-08-31T10:48:51.932Z,4.40
2018-08-31T10:51:51.004Z,4.70
2018-08-31T10:54:48.962Z,4.60
2018-08-31T10:57:47.026Z,4.83
2018-08-31T11:00:45.199Z,4.87
2018-08-31T11:03:43.208Z,4.83
2018-08-31T11:06:41.415Z,5.03
2018-08-31T11:09:39.481Z,5.17
2018-08-31T11:12:38.344Z,5.07
2018-08-31T11:18:20.663Z,4.73
2018-08-31T11:21:19.753Z,5.27
2018-08-31T11:24:17.784Z,4.73
2018-08-31T11:27:16.530Z,5.03
2018-08-31T11:30:14.691Z,4.97
2018-08-31T11:33:12.886Z,4.60
2018-08-31T11:36:11.643Z,4.77
2018-08-31T11:39:10.656Z,4.83
2018-08-31T11:42:08.654Z,4.90
2018-08-31T11:45:07.553Z,5.00
2018-08-31T11:48:05.479Z,5.27
2018-08-31T11:51:03.502Z,5.27
2018-08-31T11:54:01.571Z,5.63
2018-08-31T11:56:59.540Z,5.90
2018-08-31T11:59:57.594Z,6.03
2018-08-31T12:02:55.578Z,6.10
2018-08-31T12:05:54.527Z,6.50
2018-08-31T12:08:52.503Z,6.00
2018-08-31T12:11:50.552Z,7.30
2018-08-31T12:14:48.637Z,7.23
2018-08-31T12:17:46.592Z,7.20
2018-08-31T12:20:44.717Z,6.30
2018-08-31T12:23:43.606Z,6.70
2018-08-31T12:26:41.467Z,6.80
2018-08-31T12:29:39.479Z,7.50
2018-08-31T12:32:38.549Z,7.33
2018-08-31T12:35:37.288Z,8.17
2018-08-31T12:38:35.207Z,8.10
2018-08-31T12:41:33.229Z,8.33
2018-08-31T12:44:32.176Z,8.47
2018-08-31T12:47:31.065Z,8.37
2018-08-31T12:50:28.829Z,8.77
2018-08-31T12:53:26.937Z,9.10
2018-08-31T12:56:24.908Z,9.43
2018-08-31T12:59:23.897Z,9.17
2018-08-31T13:02:21.981Z,8.63
2018-08-31T13:05:21.296Z,9.83
2018-08-31T13:08:19.341Z,9.70
2018-08-31T13:11:17.500Z,9.20
2018-08-31T13:14:16.272Z,10.03
2018-08-31T13:17:15.453Z,10.13
2018-08-31T13:20:13.622Z,10.27
2018-08-31T13:23:11.567Z,10.03
2018-08-31T13:26:09.519Z,11.47
2018-08-31T13:29:07.518Z,11.33
2018-08-31T13:32:05.454Z,11.97
2018-08-31T13:35:03.304Z,11.83
2018-08-31T13:38:01.481Z,11.77
2018-08-31T13:40:59.427Z,12.13
2018-08-31T13:43:58.502Z,13.83
2018-08-31T13:46:56.592Z,12.80
2018-08-31T13:49:55.466Z,13.47
2018-08-31T13:52:53.610Z,12.87
2018-08-31T13:55:51.603Z,12.07
2018-08-31T13:58:49.737Z,10.80
2018-08-31T14:01:47.831Z,12.37
2018-08-31T14:08:47.968Z,11.80
2018-08-31T14:11:46.040Z,11.30
2018-08-31T14:14:44.093Z,11.90
2018-08-31T14:17:42.154Z,12.83
2018-08-31T14:20:40.298Z,12.43
2018-08-31T14:23:38.298Z,12.60
2018-08-31T14:26:36.388Z,12.30
2018-08-31T14:29:34.421Z,13.43
2018-08-31T14:32:32.473Z,10.80
2018-08-31T14:35:31.438Z,11.70
2018-08-31T14:38:29.313Z,11.20
2018-08-31T14:41:27.353Z,12.70
2018-08-31T14:44:25.312Z,29.20
2018-08-31T14:47:23.267Z,14.63
2018-08-31T14:50:21.342Z,11.90
2018-08-31T14:53:19.265Z,12.90
2018-08-31T14:56:17.563Z,13.93
2018-08-31T14:59:15.599Z,13.20
2018-08-31T15:02:13.766Z,12.43
2018-08-31T15:05:11.782Z,13.93
2018-08-31T15:08:09.885Z,13.73
2018-08-31T15:11:07.861Z,12.87
2018-08-31T15:14:05.813Z,13.20
2018-08-31T15:17:04.703Z,13.63
2018-08-31T15:20:02.848Z,14.17
2018-08-31T15:23:00.701Z,14.33
2018-08-31T15:25:58.772Z,13.57
2018-08-31T15:28:57.040Z,14.30
2018-08-31T15:31:55.193Z,15.37
2018-08-31T15:34:53.364Z,14.30
2018-08-31T15:37:51.688Z,13.57
2018-08-31T15:40:51.310Z,13.97
2018-08-31T15:43:49.166Z,13.43
2018-08-31T15:46:47.065Z,14.40
2018-08-31T15:49:46.095Z,14.23
2018-08-31T15:52:44.995Z,13.47
2018-08-31T15:55:43.066Z,14.23
2018-08-31T15:58:41.018Z,14.10
2018-08-31T16:01:38.981Z,14.23
2018-08-31T16:04:38.943Z,15.37
2018-08-31T16:07:37.033Z,17.07
2018-08-31T16:10:34.997Z,15.80
2018-08-31T16:13:33.058Z,14.20
2018-08-31T16:16:31.023Z,16.47
2018-08-31T16:19:29.924Z,17.00
2018-08-31T16:22:28.059Z,16.57
2018-08-31T16:25:26.095Z,17.40
2018-08-31T16:28:24.274Z,15.77
2018-08-31T16:31:22.343Z,16.23
2018-08-31T16:34:22.365Z,16.80
2018-08-31T16:37:21.448Z,17.87
2018-08-31T16:40:19.579Z,17.97
2018-08-31T16:43:18.472Z,18.37
2018-08-31T16:46:16.528Z,17.47
2018-08-31T16:49:14.552Z,17.83
2018-08-31T16:52:12.299Z,16.97
2018-08-31T16:55:10.320Z,16.47
2018-08-31T16:58:08.461Z,17.13
2018-08-31T17:01:06.302Z,16.73
2018-08-31T17:04:04.489Z,17.60
2018-08-31T17:07:02.464Z,17.43
2018-08-31T17:10:00.716Z,18.37
2018-08-31T17:12:58.646Z,19.77
2018-08-31T17:15:56.611Z,21.13
2018-08-31T17:18:54.375Z,20.03
2018-08-31T17:21:52.246Z,20.10
2018-08-31T17:24:50.485Z,19.63
2018-08-31T17:27:54.584Z,21.93
2018-08-31T17:30:52.555Z,22.03
2018-08-31T17:34:58.660Z,21.93
2018-08-31T17:37:56.720Z,21.87
2018-08-31T17:40:54.455Z,22.73
2018-08-31T17:43:52.527Z,39.33
2018-08-31T17:46:50.588Z,23.73
2018-08-31T17:49:49.476Z,24.20
2018-08-31T17:52:47.501Z,23.37
2018-08-31T17:55:46.599Z,25.47
2018-08-31T17:58:44.671Z,24.70
2018-08-31T18:01:42.665Z,26.37
2018-08-31T18:04:40.765Z,24.83
2018-08-31T18:07:39.867Z,24.13
2018-08-31T18:10:37.855Z,24.77
2018-08-31T18:13:35.789Z,23.17
2018-08-31T18:16:35.780Z,24.03
2018-08-31T18:19:34.357Z,23.23
2018-08-31T18:22:32.844Z,23.03
2018-08-31T18:25:32.129Z,22.33
2018-08-31T18:28:30.859Z,23.00
2018-08-31T18:31:28.867Z,27.03
2018-08-31T18:34:27.651Z,35.90
2018-08-31T18:37:26.855Z,39.47
2018-08-31T18:43:32.438Z,28.73
2018-08-31T18:46:31.395Z,32.03
2018-08-31T18:49:30.543Z,29.57
2018-08-31T18:52:28.636Z,29.03
2018-08-31T18:55:26.556Z,29.50
2018-08-31T18:58:24.650Z,29.90
2018-08-31T19:01:23.798Z,30.17
2018-08-31T19:04:21.764Z,25.90
2018-08-31T19:07:20.713Z,26.57
2018-08-31T19:10:18.689Z,26.73
2018-08-31T19:13:16.727Z,28.90
2018-08-31T19:16:14.869Z,27.30
2018-08-31T19:19:13.653Z,26.87
2018-08-31T19:22:11.538Z,28.43
2018-08-31T19:25:09.637Z,30.83
2018-08-31T19:28:07.571Z,27.57
2018-08-31T19:31:05.581Z,29.33
2018-08-31T19:34:03.623Z,31.83
2018-08-31T19:37:02.883Z,29.60
2018-08-31T19:40:00.849Z,28.07
2018-08-31T19:42:59.827Z,26.77
2018-08-31T19:45:57.771Z,28.13
2018-08-31T19:48:55.935Z,29.03
2018-08-31T19:51:53.944Z,29.30
2018-08-31T19:54:53.060Z,29.00
2018-08-31T19:57:51.024Z,28.43
2018-08-31T20:00:48.983Z,30.03
2018-08-31T20:03:49.083Z,29.47
2018-08-31T20:06:50.941Z,31.40
2018-08-31T20:09:51.133Z,29.97
2018-08-31T20:12:53.569Z,28.30
2018-08-31T20:15:54.799Z,29.87
2018-08-31T20:18:55.719Z,31.60
2018-08-31T20:21:54.383Z,30.73
2018-08-31T20:24:52.292Z,31.93
2018-08-31T20:27:50.265Z,31.87
2018-08-31T20:30:49.513Z,30.33
2018-08-31T20:33:48.442Z,31.93
2018-08-31T20:36:47.416Z,31.23
2018-08-31T20:39:46.286Z,32.77
2018-08-31T20:42:44.355Z,30.97
2018-08-31T20:45:43.437Z,30.83
2018-08-31T20:48:41.499Z,33.07
2018-08-31T20:51:39.468Z,31.83
2018-08-31T20:54:37.307Z,29.80
2018-08-31T20:57:36.295Z,32.87
2018-08-31T21:00:34.326Z,34.17
2018-08-31T21:03:32.700Z,33.00
2018-08-31T21:06:32.154Z,33.23
2018-08-31T21:09:30.983Z,32.97
2018-08-31T21:12:29.057Z,33.07
2018-08-31T21:15:27.116Z,31.50
2018-08-31T21:18:25.243Z,32.00
2018-08-31T21:21:23.131Z,32.90
2018-08-31T21:24:21.330Z,32.17
2018-08-31T21:27:19.350Z,36.20
2018-08-31T21:30:17.309Z,34.70
2018-08-31T21:33:16.492Z,34.20
2018-08-31T21:36:16.532Z,34.40
2018-08-31T21:39:15.376Z,35.63
2018-08-31T21:42:13.603Z,36.60
2018-08-31T21:45:11.705Z,35.57
2018-08-31T21:48:10.704Z,36.20
2018-08-31T21:51:09.467Z,35.43
2018-08-31T21:54:08.679Z,37.67
2018-08-31T21:57:07.553Z,39.00
2018-08-31T22:00:05.879Z,37.03
2018-08-31T22:03:04.779Z,35.90
2018-08-31T22:06:02.801Z,35.90
2018-08-31T22:09:01.608Z,36.43
2018-08-31T22:11:59.695Z,38.43
2018-08-31T22:14:57.744Z,34.53
2018-08-31T22:17:55.719Z,34.53
2018-08-31T22:20:53.876Z,35.33
2018-08-31T22:23:51.893Z,33.90
2018-08-31T22:26:49.956Z,35.77
2018-08-31T22:29:49.777Z,37.07
2018-08-31T22:32:48.660Z,37.27
2018-08-31T22:35:46.659Z,35.67
2018-08-31T22:38:44.854Z,36.17
2018-08-31T22:41:42.726Z,36.07
2018-08-31T22:44:43.667Z,34.20
2018-08-31T22:47:41.623Z,34.03
2018-08-31T22:50:40.620Z,34.83
2018-08-31T22:53:38.480Z,36.50
2018-08-31T22:56:36.396Z,36.47
2018-08-31T22:59:34.359Z,37.07
2018-08-31T23:02:32.354Z,34.07
2018-08-31T23:05:30.409Z,35.77
2018-08-31T23:08:28.928Z,32.63
2018-08-31T23:11:27.548Z,31.33
2018-08-31T23:14:25.499Z,32.23
2018-08-31T23:17:23.857Z,34.27
2018-08-31T23:20:21.797Z,33.47
2018-08-31T23:23:25.918Z,33.67
2018-08-31T23:26:25.106Z,35.23
2018-08-31T23:29:24.016Z,35.67
2018-08-31T23:32:23.154Z,34.00
2018-08-31T23:35:21.168Z,34.53
2018-08-31T23:38:20.095Z,34.87
2018-08-31T23:41:19.061Z,36.20
2018-08-31T23:44:16.933Z,35.80
2018-08-31T23:47:14.958Z,35.53
2018-08-31T23:50:15.277Z,35.17
2018-08-31T23:53:13.991Z,37.33
2018-08-31T23:56:12.041Z,35.33
2018-08-31T23:59:10.101Z,34.07
